sensor_id;sensor_type;location;lat;lon;timestamp;P1;durP1;ratioP1;P2;durP2;ratioP2
43696;SDS011;29301;47.620;19.560;2022-09-13T00:01:46;0.47;;;0.40;;
43696;SDS011;29301;47.620;19.560;2022-09-13T00:04:12;0.50;;;0.40;;
43696;SDS011;29301;47.620;19.560;2022-09-13T00:06:37;0.55;;;0.40;;
43696;SDS011;29301;47.620;19.560;2022-09-13T00:09:03;0.50;;;0.40;;
43696;SDS011;29301;47.620;19.560;2022-09-13T00:11:29;0.50;;;0.40;;
43696;SDS011;29301;47.620;19.560;2022-09-13T00:13:55;0.50;;;0.40;;
43696;SDS011;29301;47.620;19.560;2022-09-13T00:16:23;0.60;;;0.40;;
43696;SDS011;29301;47.620;19.560;2022-09-13T00:18:51;0.70;;;0.40;;
43696;SDS011;29301;47.620;19.560;2022-09-13T00:21:18;0.55;;;0.40;;
43696;SDS011;29301;47.620;19.560;2022-09-13T00:23:46;0.60;;;0.40;;
43696;SDS011;29301;47.620;19.560;2022-09-13T00:26:14;0.55;;;0.40;;
43696;SDS011;29301;47.620;19.560;2022-09-13T00:28:55;0.65;;;0.40;;
43696;SDS011;29301;47.620;19.560;2022-09-13T00:31:22;0.60;;;0.40;;
43696;SDS011;29301;47.620;19.560;2022-09-13T00:33:49;0.60;;;0.40;;
43696;SDS011;29301;47.620;19.560;2022-09-13T00:36:15;0.70;;;0.40;;
43696;SDS011;29301;47.620;19.560;2022-09-13T00:38:41;0.68;;;0.40;;
43696;SDS011;29301;47.620;19.560;2022-09-13T00:41:09;0.60;;;0.40;;
43696;SDS011;29301;47.620;19.560;2022-09-13T00:43:48;0.60;;;0.40;;
43696;SDS011;29301;47.620;19.560;2022-09-13T00:49:49;0.70;;;0.50;;
43696;SDS011;29301;47.620;19.560;2022-09-13T00:51:59;0.70;;;0.43;;
43696;SDS011;29301;47.620;19.560;2022-09-13T00:54:31;0.70;;;0.50;;
43696;SDS011;29301;47.620;19.560;2022-09-13T00:57:01;0.75;;;0.50;;
43696;SDS011;29301;47.620;19.560;2022-09-13T00:59:29;0.50;;;0.40;;
43696;SDS011;29301;47.620;19.560;2022-09-13T01:02:01;0.70;;;0.40;;
43696;SDS011;29301;47.620;19.560;2022-09-13T01:04:28;0.60;;;0.40;;
43696;SDS011;29301;47.620;19.560;2022-09-13T01:06:58;0.70;;;0.40;;
43696;SDS011;29301;47.620;19.560;2022-09-13T01:09:27;0.60;;;0.40;;
43696;SDS011;29301;47.620;19.560;2022-09-13T01:11:56;0.50;;;0.40;;
43696;SDS011;29301;47.620;19.560;2022-09-13T01:14:32;0.65;;;0.40;;
43696;SDS011;29301;47.620;19.560;2022-09-13T01:16:58;0.70;;;0.40;;
43696;SDS011;29301;47.620;19.560;2022-09-13T01:19:25;0.60;;;0.40;;
43696;SDS011;29301;47.620;19.560;2022-09-13T01:22:06;0.60;;;0.40;;
43696;SDS011;29301;47.620;19.560;2022-09-13T01:30:42;0.70;;;0.50;;
43696;SDS011;29301;47.620;19.560;2022-09-13T01:36:09;0.60;;;0.40;;
43696;SDS011;29301;47.620;19.560;2022-09-13T01:46:36;0.70;;;0.50;;
43696;SDS011;29301;47.620;19.560;2022-09-13T01:52:07;0.70;;;0.50;;
43696;SDS011;29301;47.620;19.560;2022-09-13T01:57:15;0.70;;;0.50;;
43696;SDS011;29301;47.620;19.560;2022-09-13T02:00:08;0.70;;;0.50;;
43696;SDS011;29301;47.620;19.560;2022-09-13T02:05:36;0.70;;;0.40;;
43696;SDS011;29301;47.620;19.560;2022-09-13T02:08:38;0.60;;;0.40;;
43696;SDS011;29301;47.620;19.560;2022-09-13T02:10:59;0.70;;;0.40;;
43696;SDS011;29301;47.620;19.560;2022-09-13T02:13:36;0.70;;;0.50;;
43696;SDS011;29301;47.620;19.560;2022-09-13T02:16:15;0.70;;;0.50;;
43696;SDS011;29301;47.620;19.560;2022-09-13T02:18:46;0.70;;;0.50;;
43696;SDS011;29301;47.620;19.560;2022-09-13T02:21:20;0.70;;;0.50;;
43696;SDS011;29301;47.620;19.560;2022-09-13T02:23:54;0.70;;;0.50;;
43696;SDS011;29301;47.620;19.560;2022-09-13T02:26:26;0.70;;;0.50;;
43696;SDS011;29301;47.620;19.560;2022-09-13T02:28:55;0.70;;;0.50;;
43696;SDS011;29301;47.620;19.560;2022-09-13T02:31:28;0.70;;;0.50;;
43696;SDS011;29301;47.620;19.560;2022-09-13T02:34:20;0.70;;;0.50;;
43696;SDS011;29301;47.620;19.560;2022-09-13T02:36:49;0.70;;;0.50;;
43696;SDS011;29301;47.620;19.560;2022-09-13T02:39:19;0.70;;;0.50;;
43696;SDS011;29301;47.620;19.560;2022-09-13T02:44:37;0.70;;;0.50;;
43696;SDS011;29301;47.620;19.560;2022-09-13T02:49:57;0.70;;;0.50;;
43696;SDS011;29301;47.620;19.560;2022-09-13T02:52:32;0.70;;;0.50;;
43696;SDS011;29301;47.620;19.560;2022-09-13T03:00:25;0.70;;;0.52;;
43696;SDS011;29301;47.620;19.560;2022-09-13T03:02:53;0.70;;;0.50;;
43696;SDS011;29301;47.620;19.560;2022-09-13T03:05:20;0.70;;;0.50;;
43696;SDS011;29301;47.620;19.560;2022-09-13T03:07:47;0.70;;;0.50;;
43696;SDS011;29301;47.620;19.560;2022-09-13T03:10:13;0.70;;;0.50;;
43696;SDS011;29301;47.620;19.560;2022-09-13T03:20:10;0.70;;;0.50;;
43696;SDS011;29301;47.620;19.560;2022-09-13T03:25:49;0.70;;;0.50;;
43696;SDS011;29301;47.620;19.560;2022-09-13T03:31:07;0.70;;;0.50;;
43696;SDS011;29301;47.620;19.560;2022-09-13T03:33:43;0.70;;;0.50;;
43696;SDS011;29301;47.620;19.560;2022-09-13T03:38:59;0.70;;;0.50;;
43696;SDS011;29301;47.620;19.560;2022-09-13T03:41:39;0.70;;;0.50;;
43696;SDS011;29301;47.620;19.560;2022-09-13T03:44:09;0.80;;;0.50;;
43696;SDS011;29301;47.620;19.560;2022-09-13T03:46:39;0.80;;;0.50;;
43696;SDS011;29301;47.620;19.560;2022-09-13T03:49:08;0.70;;;0.50;;
43696;SDS011;29301;47.620;19.560;2022-09-13T03:51:39;0.70;;;0.50;;
43696;SDS011;29301;47.620;19.560;2022-09-13T03:54:07;0.70;;;0.50;;
43696;SDS011;29301;47.620;19.560;2022-09-13T03:56:38;0.70;;;0.57;;
43696;SDS011;29301;47.620;19.560;2022-09-13T03:59:05;0.70;;;0.50;;
43696;SDS011;29301;47.620;19.560;2022-09-13T04:01:30;0.70;;;0.50;;
43696;SDS011;29301;47.620;19.560;2022-09-13T04:03:56;0.70;;;0.50;;
43696;SDS011;29301;47.620;19.560;2022-09-13T04:06:22;0.80;;;0.50;;
43696;SDS011;29301;47.620;19.560;2022-09-13T04:08:47;0.80;;;0.60;;
43696;SDS011;29301;47.620;19.560;2022-09-13T04:11:13;0.70;;;0.50;;
43696;SDS011;29301;47.620;19.560;2022-09-13T04:13:39;0.70;;;0.50;;
43696;SDS011;29301;47.620;19.560;2022-09-13T04:16:05;0.70;;;0.50;;
43696;SDS011;29301;47.620;19.560;2022-09-13T04:18:32;0.70;;;0.50;;
43696;SDS011;29301;47.620;19.560;2022-09-13T04:20:58;0.70;;;0.55;;
43696;SDS011;29301;47.620;19.560;2022-09-13T04:23:26;0.70;;;0.50;;
43696;SDS011;29301;47.620;19.560;2022-09-13T04:25:52;0.70;;;0.50;;
43696;SDS011;29301;47.620;19.560;2022-09-13T04:28:19;0.80;;;0.50;;
43696;SDS011;29301;47.620;19.560;2022-09-13T04:30:46;0.70;;;0.50;;
43696;SDS011;29301;47.620;19.560;2022-09-13T04:33:14;0.70;;;0.50;;
43696;SDS011;29301;47.620;19.560;2022-09-13T04:35:41;0.70;;;0.50;;
43696;SDS011;29301;47.620;19.560;2022-09-13T04:38:06;0.80;;;0.50;;
43696;SDS011;29301;47.620;19.560;2022-09-13T04:40:33;0.80;;;0.50;;
43696;SDS011;29301;47.620;19.560;2022-09-13T04:43:01;0.80;;;0.50;;
43696;SDS011;29301;47.620;19.560;2022-09-13T04:45:28;0.77;;;0.50;;
43696;SDS011;29301;47.620;19.560;2022-09-13T04:47:54;0.70;;;0.50;;
43696;SDS011;29301;47.620;19.560;2022-09-13T04:50:23;0.70;;;0.50;;
43696;SDS011;29301;47.620;19.560;2022-09-13T04:52:50;0.80;;;0.55;;
43696;SDS011;29301;47.620;19.560;2022-09-13T04:55:18;0.70;;;0.50;;
43696;SDS011;29301;47.620;19.560;2022-09-13T04:57:43;0.70;;;0.50;;
43696;SDS011;29301;47.620;19.560;2022-09-13T05:00:09;0.70;;;0.50;;
43696;SDS011;29301;47.620;19.560;2022-09-13T05:02:35;0.70;;;0.50;;
43696;SDS011;29301;47.620;19.560;2022-09-13T05:05:01;0.80;;;0.50;;
43696;SDS011;29301;47.620;19.560;2022-09-13T05:07:26;0.70;;;0.50;;
43696;SDS011;29301;47.620;19.560;2022-09-13T05:09:52;0.70;;;0.50;;
43696;SDS011;29301;47.620;19.560;2022-09-13T05:12:18;0.80;;;0.50;;
43696;SDS011;29301;47.620;19.560;2022-09-13T05:14:43;0.80;;;0.50;;
43696;SDS011;29301;47.620;19.560;2022-09-13T05:17:09;0.73;;;0.50;;
43696;SDS011;29301;47.620;19.560;2022-09-13T05:19:35;0.80;;;0.60;;
43696;SDS011;29301;47.620;19.560;2022-09-13T05:22:01;0.70;;;0.50;;
43696;SDS011;29301;47.620;19.560;2022-09-13T05:24:27;0.80;;;0.60;;
43696;SDS011;29301;47.620;19.560;2022-09-13T05:26:52;0.70;;;0.50;;
43696;SDS011;29301;47.620;19.560;2022-09-13T05:29:18;0.80;;;0.55;;
43696;SDS011;29301;47.620;19.560;2022-09-13T05:31:44;0.70;;;0.50;;
43696;SDS011;29301;47.620;19.560;2022-09-13T05:34:11;0.70;;;0.50;;
43696;SDS011;29301;47.620;19.560;2022-09-13T05:36:38;0.80;;;0.60;;
43696;SDS011;29301;47.620;19.560;2022-09-13T05:39:04;0.70;;;0.50;;
43696;SDS011;29301;47.620;19.560;2022-09-13T05:41:32;0.70;;;0.50;;
43696;SDS011;29301;47.620;19.560;2022-09-13T05:43:57;0.70;;;0.50;;
43696;SDS011;29301;47.620;19.560;2022-09-13T05:46:23;0.70;;;0.50;;
43696;SDS011;29301;47.620;19.560;2022-09-13T05:48:49;0.70;;;0.50;;
43696;SDS011;29301;47.620;19.560;2022-09-13T05:51:15;0.80;;;0.50;;
43696;SDS011;29301;47.620;19.560;2022-09-13T05:53:46;0.70;;;0.50;;
43696;SDS011;29301;47.620;19.560;2022-09-13T05:56:14;0.70;;;0.55;;
43696;SDS011;29301;47.620;19.560;2022-09-13T05:58:42;0.70;;;0.50;;
43696;SDS011;29301;47.620;19.560;2022-09-13T06:01:09;0.70;;;0.50;;
43696;SDS011;29301;47.620;19.560;2022-09-13T06:03:36;0.70;;;0.50;;
43696;SDS011;29301;47.620;19.560;2022-09-13T06:06:02;0.80;;;0.50;;
43696;SDS011;29301;47.620;19.560;2022-09-13T06:08:28;0.70;;;0.50;;
43696;SDS011;29301;47.620;19.560;2022-09-13T06:10:59;0.70;;;0.50;;
43696;SDS011;29301;47.620;19.560;2022-09-13T06:13:27;0.70;;;0.50;;
43696;SDS011;29301;47.620;19.560;2022-09-13T06:15:53;0.70;;;0.50;;
43696;SDS011;29301;47.620;19.560;2022-09-13T06:18:20;0.70;;;0.50;;
43696;SDS011;29301;47.620;19.560;2022-09-13T06:20:47;0.68;;;0.47;;
43696;SDS011;29301;47.620;19.560;2022-09-13T06:23:13;0.70;;;0.50;;
43696;SDS011;29301;47.620;19.560;2022-09-13T06:25:39;0.70;;;0.50;;
43696;SDS011;29301;47.620;19.560;2022-09-13T06:28:05;0.70;;;0.40;;
43696;SDS011;29301;47.620;19.560;2022-09-13T06:30:32;0.70;;;0.40;;
43696;SDS011;29301;47.620;19.560;2022-09-13T06:32:58;0.70;;;0.40;;
43696;SDS011;29301;47.620;19.560;2022-09-13T06:35:24;0.63;;;0.40;;
43696;SDS011;29301;47.620;19.560;2022-09-13T06:37:50;0.60;;;0.40;;
43696;SDS011;29301;47.620;19.560;2022-09-13T06:40:18;0.70;;;0.40;;
43696;SDS011;29301;47.620;19.560;2022-09-13T06:42:46;0.60;;;0.40;;
43696;SDS011;29301;47.620;19.560;2022-09-13T06:45:12;0.60;;;0.40;;
43696;SDS011;29301;47.620;19.560;2022-09-13T06:47:38;0.50;;;0.40;;
43696;SDS011;29301;47.620;19.560;2022-09-13T06:50:04;0.60;;;0.40;;
43696;SDS011;29301;47.620;19.560;2022-09-13T06:52:31;0.60;;;0.40;;
43696;SDS011;29301;47.620;19.560;2022-09-13T06:54:57;0.50;;;0.40;;
43696;SDS011;29301;47.620;19.560;2022-09-13T06:57:23;0.50;;;0.40;;
43696;SDS011;29301;47.620;19.560;2022-09-13T06:59:49;0.50;;;0.40;;
43696;SDS011;29301;47.620;19.560;2022-09-13T07:02:14;0.40;;;0.40;;
43696;SDS011;29301;47.620;19.560;2022-09-13T07:04:40;0.50;;;0.40;;
43696;SDS011;29301;47.620;19.560;2022-09-13T07:07:06;0.60;;;0.40;;
43696;SDS011;29301;47.620;19.560;2022-09-13T07:09:31;0.50;;;0.40;;
43696;SDS011;29301;47.620;19.560;2022-09-13T07:11:58;0.40;;;0.40;;
43696;SDS011;29301;47.620;19.560;2022-09-13T07:14:25;0.40;;;0.40;;
43696;SDS011;29301;47.620;19.560;2022-09-13T07:16:52;0.40;;;0.30;;
43696;SDS011;29301;47.620;19.560;2022-09-13T07:19:19;0.40;;;0.40;;
43696;SDS011;29301;47.620;19.560;2022-09-13T07:21:50;0.40;;;0.30;;
43696;SDS011;29301;47.620;19.560;2022-09-13T07:24:17;0.30;;;0.30;;
43696;SDS011;29301;47.620;19.560;2022-09-13T07:26:44;0.30;;;0.30;;
43696;SDS011;29301;47.620;19.560;2022-09-13T07:29:12;0.40;;;0.30;;
43696;SDS011;29301;47.620;19.560;2022-09-13T07:31:41;0.43;;;0.32;;
43696;SDS011;29301;47.620;19.560;2022-09-13T07:34:12;0.40;;;0.30;;
43696;SDS011;29301;47.620;19.560;2022-09-13T07:36:46;0.40;;;0.30;;
43696;SDS011;29301;47.620;19.560;2022-09-13T07:39:12;0.30;;;0.30;;
43696;SDS011;29301;47.620;19.560;2022-09-13T07:41:39;0.40;;;0.30;;
43696;SDS011;29301;47.620;19.560;2022-09-13T07:44:05;0.30;;;0.30;;
43696;SDS011;29301;47.620;19.560;2022-09-13T07:46:33;0.30;;;0.30;;
43696;SDS011;29301;47.620;19.560;2022-09-13T07:49:05;0.40;;;0.30;;
43696;SDS011;29301;47.620;19.560;2022-09-13T07:51:32;0.40;;;0.30;;
43696;SDS011;29301;47.620;19.560;2022-09-13T07:54:04;0.40;;;0.30;;
43696;SDS011;29301;47.620;19.560;2022-09-13T07:56:32;0.40;;;0.30;;
43696;SDS011;29301;47.620;19.560;2022-09-13T07:59:00;0.30;;;0.30;;
43696;SDS011;29301;47.620;19.560;2022-09-13T08:01:35;0.30;;;0.30;;
43696;SDS011;29301;47.620;19.560;2022-09-13T08:04:04;0.40;;;0.30;;
43696;SDS011;29301;47.620;19.560;2022-09-13T08:06:32;0.30;;;0.30;;
43696;SDS011;29301;47.620;19.560;2022-09-13T08:08:59;0.40;;;0.30;;
43696;SDS011;29301;47.620;19.560;2022-09-13T08:11:27;0.30;;;0.30;;
43696;SDS011;29301;47.620;19.560;2022-09-13T08:13:54;0.40;;;0.30;;
43696;SDS011;29301;47.620;19.560;2022-09-13T08:16:20;0.40;;;0.30;;
43696;SDS011;29301;47.620;19.560;2022-09-13T08:18:48;0.30;;;0.20;;
43696;SDS011;29301;47.620;19.560;2022-09-13T08:21:15;0.30;;;0.20;;
43696;SDS011;29301;47.620;19.560;2022-09-13T08:23:41;0.40;;;0.30;;
43696;SDS011;29301;47.620;19.560;2022-09-13T08:26:07;0.30;;;0.20;;
43696;SDS011;29301;47.620;19.560;2022-09-13T08:28:35;0.30;;;0.20;;
43696;SDS011;29301;47.620;19.560;2022-09-13T08:31:05;0.40;;;0.30;;
43696;SDS011;29301;47.620;19.560;2022-09-13T08:33:32;0.30;;;0.20;;
43696;SDS011;29301;47.620;19.560;2022-09-13T08:35:59;0.30;;;0.20;;
43696;SDS011;29301;47.620;19.560;2022-09-13T08:38:25;0.30;;;0.20;;
43696;SDS011;29301;47.620;19.560;2022-09-13T08:40:57;0.40;;;0.22;;
43696;SDS011;29301;47.620;19.560;2022-09-13T08:46:17;0.35;;;0.30;;
43696;SDS011;29301;47.620;19.560;2022-09-13T08:48:46;0.30;;;0.20;;
43696;SDS011;29301;47.620;19.560;2022-09-13T08:51:26;0.40;;;0.30;;
43696;SDS011;29301;47.620;19.560;2022-09-13T08:53:53;0.30;;;0.20;;
43696;SDS011;29301;47.620;19.560;2022-09-13T08:56:33;0.30;;;0.20;;
43696;SDS011;29301;47.620;19.560;2022-09-13T09:04:39;0.40;;;0.30;;
43696;SDS011;29301;47.620;19.560;2022-09-13T09:10:02;0.30;;;0.20;;
43696;SDS011;29301;47.620;19.560;2022-09-13T09:12:38;0.30;;;0.20;;
43696;SDS011;29301;47.620;19.560;2022-09-13T09:15:16;0.30;;;0.20;;
43696;SDS011;29301;47.620;19.560;2022-09-13T09:17:48;0.25;;;0.20;;
43696;SDS011;29301;47.620;19.560;2022-09-13T09:20:47;0.35;;;0.20;;
43696;SDS011;29301;47.620;19.560;2022-09-13T09:23:19;0.30;;;0.20;;
43696;SDS011;29301;47.620;19.560;2022-09-13T09:28:45;0.20;;;0.20;;
43696;SDS011;29301;47.620;19.560;2022-09-13T09:31:17;0.35;;;0.20;;
43696;SDS011;29301;47.620;19.560;2022-09-13T09:33:59;0.20;;;0.20;;
43696;SDS011;29301;47.620;19.560;2022-09-13T09:39:36;0.30;;;0.20;;
43696;SDS011;29301;47.620;19.560;2022-09-13T09:42:04;0.20;;;0.20;;
43696;SDS011;29301;47.620;19.560;2022-09-13T09:44:38;0.20;;;0.20;;
43696;SDS011;29301;47.620;19.560;2022-09-13T09:47:11;0.10;;;0.10;;
43696;SDS011;29301;47.620;19.560;2022-09-13T09:49:45;0.20;;;0.20;;
43696;SDS011;29301;47.620;19.560;2022-09-13T09:55:45;0.15;;;0.15;;
43696;SDS011;29301;47.620;19.560;2022-09-13T09:58:04;0.20;;;0.20;;
43696;SDS011;29301;47.620;19.560;2022-09-13T10:00:36;0.10;;;0.10;;
43696;SDS011;29301;47.620;19.560;2022-09-13T10:03:20;0.15;;;0.15;;
43696;SDS011;29301;47.620;19.560;2022-09-13T10:06:08;0.10;;;0.10;;
43696;SDS011;29301;47.620;19.560;2022-09-13T10:08:39;0.10;;;0.10;;
43696;SDS011;29301;47.620;19.560;2022-09-13T10:11:06;0.10;;;0.10;;
43696;SDS011;29301;47.620;19.560;2022-09-13T10:13:33;0.20;;;0.20;;
43696;SDS011;29301;47.620;19.560;2022-09-13T10:16:00;0.20;;;0.20;;
43696;SDS011;29301;47.620;19.560;2022-09-13T10:18:29;0.10;;;0.10;;
43696;SDS011;29301;47.620;19.560;2022-09-13T10:23:30;0.13;;;0.13;;
43696;SDS011;29301;47.620;19.560;2022-09-13T10:31:13;0.20;;;0.20;;
43696;SDS011;29301;47.620;19.560;2022-09-13T10:36:21;0.10;;;0.10;;
43696;SDS011;29301;47.620;19.560;2022-09-13T10:38:51;0.20;;;0.20;;
43696;SDS011;29301;47.620;19.560;2022-09-13T10:44:00;0.20;;;0.20;;
43696;SDS011;29301;47.620;19.560;2022-09-13T10:46:29;0.20;;;0.20;;
43696;SDS011;29301;47.620;19.560;2022-09-13T10:48:57;0.35;;;0.20;;
43696;SDS011;29301;47.620;19.560;2022-09-13T10:53:51;0.10;;;0.10;;
43696;SDS011;29301;47.620;19.560;2022-09-13T10:56:47;0.20;;;0.20;;
43696;SDS011;29301;47.620;19.560;2022-09-13T11:12:41;0.20;;;0.20;;
43696;SDS011;29301;47.620;19.560;2022-09-13T11:15:16;0.20;;;0.20;;
43696;SDS011;29301;47.620;19.560;2022-09-13T11:39:20;0.10;;;0.10;;
43696;SDS011;29301;47.620;19.560;2022-09-13T11:45:20;0.10;;;0.10;;
43696;SDS011;29301;47.620;19.560;2022-09-13T11:48:50;0.10;;;0.10;;
43696;SDS011;29301;47.620;19.560;2022-09-13T11:50:49;0.10;;;0.10;;
43696;SDS011;29301;47.620;19.560;2022-09-13T11:56:26;0.15;;;0.15;;
43696;SDS011;29301;47.620;19.560;2022-09-13T11:59:00;0.13;;;0.13;;
43696;SDS011;29301;47.620;19.560;2022-09-13T12:01:33;0.13;;;0.13;;
43696;SDS011;29301;47.620;19.560;2022-09-13T12:04:08;0.10;;;0.10;;
43696;SDS011;29301;47.620;19.560;2022-09-13T12:06:41;0.20;;;0.20;;
43696;SDS011;29301;47.620;19.560;2022-09-13T12:12:02;0.13;;;0.13;;
43696;SDS011;29301;47.620;19.560;2022-09-13T12:14:56;0.17;;;0.17;;
43696;SDS011;29301;47.620;19.560;2022-09-13T12:20:00;0.10;;;0.10;;
43696;SDS011;29301;47.620;19.560;2022-09-13T12:22:30;0.10;;;0.10;;
43696;SDS011;29301;47.620;19.560;2022-09-13T12:25:02;0.10;;;0.10;;
43696;SDS011;29301;47.620;19.560;2022-09-13T12:27:38;0.20;;;0.20;;
43696;SDS011;29301;47.620;19.560;2022-09-13T12:30:14;0.15;;;0.15;;
43696;SDS011;29301;47.620;19.560;2022-09-13T12:32:45;0.10;;;0.10;;
43696;SDS011;29301;47.620;19.560;2022-09-13T12:59:34;0.15;;;0.15;;
43696;SDS011;29301;47.620;19.560;2022-09-13T13:02:21;0.20;;;0.20;;
43696;SDS011;29301;47.620;19.560;2022-09-13T13:04:49;0.15;;;0.15;;
43696;SDS011;29301;47.620;19.560;2022-09-13T13:07:20;0.20;;;0.20;;
43696;SDS011;29301;47.620;19.560;2022-09-13T13:09:49;0.20;;;0.20;;
43696;SDS011;29301;47.620;19.560;2022-09-13T13:15:11;0.10;;;0.10;;
43696;SDS011;29301;47.620;19.560;2022-09-13T13:17:54;0.10;;;0.10;;
43696;SDS011;29301;47.620;19.560;2022-09-13T13:20:40;0.10;;;0.10;;
43696;SDS011;29301;47.620;19.560;2022-09-13T13:23:22;0.10;;;0.10;;
43696;SDS011;29301;47.620;19.560;2022-09-13T13:33:55;0.15;;;0.15;;
43696;SDS011;29301;47.620;19.560;2022-09-13T13:36:41;0.10;;;0.10;;
43696;SDS011;29301;47.620;19.560;2022-09-13T13:41:58;0.10;;;0.10;;
43696;SDS011;29301;47.620;19.560;2022-09-13T13:46:52;0.20;;;0.20;;
43696;SDS011;29301;47.620;19.560;2022-09-13T13:52:55;0.10;;;0.10;;
43696;SDS011;29301;47.620;19.560;2022-09-13T13:57:56;0.13;;;0.13;;
43696;SDS011;29301;47.620;19.560;2022-09-13T14:00:34;0.10;;;0.10;;
43696;SDS011;29301;47.620;19.560;2022-09-13T14:03:14;0.10;;;0.10;;
43696;SDS011;29301;47.620;19.560;2022-09-13T14:06:01;0.10;;;0.10;;
43696;SDS011;29301;47.620;19.560;2022-09-13T14:19:42;0.10;;;0.10;;
43696;SDS011;29301;47.620;19.560;2022-09-13T14:22:15;0.10;;;0.10;;
43696;SDS011;29301;47.620;19.560;2022-09-13T14:27:19;0.13;;;0.13;;
43696;SDS011;29301;47.620;19.560;2022-09-13T14:29:55;0.20;;;0.20;;
43696;SDS011;29301;47.620;19.560;2022-09-13T14:32:25;0.10;;;0.10;;
43696;SDS011;29301;47.620;19.560;2022-09-13T14:34:59;0.17;;;0.17;;
43696;SDS011;29301;47.620;19.560;2022-09-13T14:37:30;0.20;;;0.20;;
43696;SDS011;29301;47.620;19.560;2022-09-13T14:42:41;0.20;;;0.15;;
43696;SDS011;29301;47.620;19.560;2022-09-13T14:45:41;0.17;;;0.17;;
43696;SDS011;29301;47.620;19.560;2022-09-13T14:48:03;0.20;;;0.20;;
43696;SDS011;29301;47.620;19.560;2022-09-13T14:50:40;0.30;;;0.20;;
43696;SDS011;29301;47.620;19.560;2022-09-13T14:53:23;0.22;;;0.20;;
43696;SDS011;29301;47.620;19.560;2022-09-13T14:55:53;0.20;;;0.20;;
43696;SDS011;29301;47.620;19.560;2022-09-13T14:58:30;0.20;;;0.20;;
43696;SDS011;29301;47.620;19.560;2022-09-13T15:01:07;0.30;;;0.20;;
43696;SDS011;29301;47.620;19.560;2022-09-13T15:03:35;0.20;;;0.20;;
43696;SDS011;29301;47.620;19.560;2022-09-13T15:06:06;0.20;;;0.20;;
43696;SDS011;29301;47.620;19.560;2022-09-13T15:10:57;0.20;;;0.20;;
43696;SDS011;29301;47.620;19.560;2022-09-13T15:13:29;0.22;;;0.20;;
43696;SDS011;29301;47.620;19.560;2022-09-13T15:15:55;0.20;;;0.20;;
43696;SDS011;29301;47.620;19.560;2022-09-13T15:18:25;0.35;;;0.20;;
43696;SDS011;29301;47.620;19.560;2022-09-13T15:20:58;0.20;;;0.20;;
43696;SDS011;29301;47.620;19.560;2022-09-13T15:23:42;0.20;;;0.20;;
43696;SDS011;29301;47.620;19.560;2022-09-13T15:26:23;0.30;;;0.20;;
43696;SDS011;29301;47.620;19.560;2022-09-13T15:28:57;0.30;;;0.20;;
43696;SDS011;29301;47.620;19.560;2022-09-13T15:31:27;0.20;;;0.20;;
43696;SDS011;29301;47.620;19.560;2022-09-13T15:36:43;0.28;;;0.20;;
43696;SDS011;29301;47.620;19.560;2022-09-13T15:39:17;0.30;;;0.20;;
43696;SDS011;29301;47.620;19.560;2022-09-13T15:41:57;0.30;;;0.20;;
43696;SDS011;29301;47.620;19.560;2022-09-13T15:44:24;0.40;;;0.20;;
43696;SDS011;29301;47.620;19.560;2022-09-13T15:46:52;0.30;;;0.20;;
43696;SDS011;29301;47.620;19.560;2022-09-13T15:49:20;0.30;;;0.20;;
43696;SDS011;29301;47.620;19.560;2022-09-13T15:51:53;0.30;;;0.20;;
43696;SDS011;29301;47.620;19.560;2022-09-13T15:54:20;0.30;;;0.20;;
43696;SDS011;29301;47.620;19.560;2022-09-13T15:56:49;0.30;;;0.20;;
43696;SDS011;29301;47.620;19.560;2022-09-13T15:59:17;0.30;;;0.20;;
43696;SDS011;29301;47.620;19.560;2022-09-13T16:01:46;0.30;;;0.20;;
43696;SDS011;29301;47.620;19.560;2022-09-13T16:04:13;0.30;;;0.20;;
43696;SDS011;29301;47.620;19.560;2022-09-13T16:06:40;0.40;;;0.20;;
43696;SDS011;29301;47.620;19.560;2022-09-13T16:09:22;0.30;;;0.20;;
43696;SDS011;29301;47.620;19.560;2022-09-13T16:11:49;0.30;;;0.20;;
43696;SDS011;29301;47.620;19.560;2022-09-13T16:14:16;0.30;;;0.20;;
43696;SDS011;29301;47.620;19.560;2022-09-13T16:16:43;0.40;;;0.30;;
43696;SDS011;29301;47.620;19.560;2022-09-13T16:19:16;0.35;;;0.20;;
43696;SDS011;29301;47.620;19.560;2022-09-13T16:21:43;0.20;;;0.10;;
43696;SDS011;29301;47.620;19.560;2022-09-13T16:24:09;0.30;;;0.20;;
43696;SDS011;29301;47.620;19.560;2022-09-13T16:26:35;0.40;;;0.30;;
43696;SDS011;29301;47.620;19.560;2022-09-13T16:29:02;0.25;;;0.20;;
43696;SDS011;29301;47.620;19.560;2022-09-13T16:31:28;0.20;;;0.20;;
43696;SDS011;29301;47.620;19.560;2022-09-13T16:33:56;0.28;;;0.20;;
43696;SDS011;29301;47.620;19.560;2022-09-13T16:36:22;0.28;;;0.20;;
43696;SDS011;29301;47.620;19.560;2022-09-13T16:38:48;0.28;;;0.20;;
43696;SDS011;29301;47.620;19.560;2022-09-13T16:41:13;0.20;;;0.20;;
43696;SDS011;29301;47.620;19.560;2022-09-13T16:43:39;0.30;;;0.20;;
43696;SDS011;29301;47.620;19.560;2022-09-13T16:46:08;0.20;;;0.10;;
43696;SDS011;29301;47.620;19.560;2022-09-13T16:48:35;0.30;;;0.20;;
43696;SDS011;29301;47.620;19.560;2022-09-13T16:51:05;0.30;;;0.20;;
43696;SDS011;29301;47.620;19.560;2022-09-13T16:53:33;0.30;;;0.20;;
43696;SDS011;29301;47.620;19.560;2022-09-13T16:56:06;0.40;;;0.20;;
43696;SDS011;29301;47.620;19.560;2022-09-13T16:58:35;0.30;;;0.20;;
43696;SDS011;29301;47.620;19.560;2022-09-13T17:01:05;0.30;;;0.20;;
43696;SDS011;29301;47.620;19.560;2022-09-13T17:03:32;0.40;;;0.20;;
43696;SDS011;29301;47.620;19.560;2022-09-13T17:06:01;0.30;;;0.20;;
43696;SDS011;29301;47.620;19.560;2022-09-13T17:08:28;0.40;;;0.28;;
43696;SDS011;29301;47.620;19.560;2022-09-13T17:10:54;0.40;;;0.30;;
43696;SDS011;29301;47.620;19.560;2022-09-13T17:13:20;0.30;;;0.20;;
43696;SDS011;29301;47.620;19.560;2022-09-13T17:15:46;0.30;;;0.20;;
43696;SDS011;29301;47.620;19.560;2022-09-13T17:18:12;0.30;;;0.20;;
43696;SDS011;29301;47.620;19.560;2022-09-13T17:20:42;0.30;;;0.20;;
43696;SDS011;29301;47.620;19.560;2022-09-13T17:23:08;0.30;;;0.20;;
43696;SDS011;29301;47.620;19.560;2022-09-13T17:25:34;0.40;;;0.20;;
43696;SDS011;29301;47.620;19.560;2022-09-13T17:28:00;0.38;;;0.28;;
43696;SDS011;29301;47.620;19.560;2022-09-13T17:30:25;0.40;;;0.30;;
43696;SDS011;29301;47.620;19.560;2022-09-13T17:32:51;0.40;;;0.30;;
43696;SDS011;29301;47.620;19.560;2022-09-13T17:35:17;0.30;;;0.20;;
43696;SDS011;29301;47.620;19.560;2022-09-13T17:37:42;0.40;;;0.30;;
43696;SDS011;29301;47.620;19.560;2022-09-13T17:40:08;0.40;;;0.25;;
43696;SDS011;29301;47.620;19.560;2022-09-13T17:42:34;0.30;;;0.22;;
43696;SDS011;29301;47.620;19.560;2022-09-13T17:44:59;0.30;;;0.20;;
43696;SDS011;29301;47.620;19.560;2022-09-13T17:47:25;0.40;;;0.20;;
43696;SDS011;29301;47.620;19.560;2022-09-13T17:49:51;0.30;;;0.20;;
43696;SDS011;29301;47.620;19.560;2022-09-13T17:52:16;0.30;;;0.20;;
43696;SDS011;29301;47.620;19.560;2022-09-13T17:54:42;0.30;;;0.20;;
43696;SDS011;29301;47.620;19.560;2022-09-13T17:57:08;0.30;;;0.28;;
43696;SDS011;29301;47.620;19.560;2022-09-13T17:59:35;0.30;;;0.20;;
43696;SDS011;29301;47.620;19.560;2022-09-13T18:02:01;0.40;;;0.30;;
43696;SDS011;29301;47.620;19.560;2022-09-13T18:04:27;0.30;;;0.20;;
43696;SDS011;29301;47.620;19.560;2022-09-13T18:06:53;0.30;;;0.20;;
43696;SDS011;29301;47.620;19.560;2022-09-13T18:09:19;0.40;;;0.30;;
43696;SDS011;29301;47.620;19.560;2022-09-13T18:11:44;0.32;;;0.22;;
43696;SDS011;29301;47.620;19.560;2022-09-13T18:14:11;0.40;;;0.30;;
43696;SDS011;29301;47.620;19.560;2022-09-13T18:16:38;0.30;;;0.20;;